createdAt,value
2022-09-15T00:00:21.759Z,13.65
2022-09-15T00:01:21.780Z,13.63
2022-09-15T00:02:21.877Z,13.63
2022-09-15T00:03:21.774Z,13.62
2022-09-15T00:04:21.730Z,13.61
2022-09-15T00:05:21.701Z,13.61
2022-09-15T00:06:21.692Z,13.58
2022-09-15T00:07:21.680Z,13.55
2022-09-15T00:08:21.661Z,13.56
2022-09-15T00:09:21.730Z,13.56
2022-09-15T00:10:21.650Z,13.55
2022-09-15T00:11:21.610Z,13.54
2022-09-15T00:12:21.610Z,13.52
2022-09-15T00:13:21.579Z,13.47
2022-09-15T00:14:21.580Z,13.47
2022-09-15T00:15:21.559Z,13.46
2022-09-15T00:16:21.618Z,13.43
2022-09-15T00:17:21.529Z,13.46
2022-09-15T00:18:21.511Z,13.41
2022-09-15T00:19:21.532Z,13.40
2022-09-15T00:20:21.510Z,13.40
2022-09-15T00:21:21.494Z,13.40
2022-09-15T00:22:21.472Z,13.41
2022-09-15T00:23:21.460Z,13.40
2022-09-15T00:24:21.453Z,13.40
2022-09-15T00:25:21.474Z,13.37
2022-09-15T00:26:21.450Z,13.38
2022-09-15T00:27:21.534Z,13.36
2022-09-15T00:28:21.387Z,13.36
2022-09-15T00:29:21.439Z,13.30
2022-09-15T00:30:21.368Z,13.30
2022-09-15T00:31:21.476Z,13.30
2022-09-15T00:32:21.342Z,13.29
2022-09-15T00:33:21.321Z,13.29
2022-09-15T00:34:21.322Z,13.32
2022-09-15T00:35:21.373Z,13.32
2022-09-15T00:36:21.283Z,13.32
2022-09-15T00:37:21.352Z,13.30
2022-09-15T00:38:21.254Z,13.32
2022-09-15T00:39:21.251Z,13.29
2022-09-15T00:41:25.235Z,13.29
2022-09-15T00:42:25.226Z,13.27
2022-09-15T00:43:25.226Z,13.25
2022-09-15T00:44:25.239Z,13.25
2022-09-15T00:45:25.234Z,13.27
2022-09-15T00:46:25.179Z,13.27
2022-09-15T00:47:25.166Z,13.25
2022-09-15T00:48:25.145Z,13.21
2022-09-15T00:49:25.124Z,13.21
2022-09-15T00:50:25.124Z,13.18
2022-09-15T00:51:25.104Z,13.17
2022-09-15T00:52:25.086Z,13.18
2022-09-15T00:53:25.077Z,13.18
2022-09-15T00:54:25.076Z,13.20
2022-09-15T00:55:25.055Z,13.18
2022-09-15T00:56:25.038Z,13.18
2022-09-15T00:57:25.025Z,13.15
2022-09-15T00:58:25.018Z,13.12
2022-09-15T00:59:24.998Z,13.11
2022-09-15T01:00:24.996Z,13.09
2022-09-15T01:01:25.046Z,13.09
2022-09-15T01:02:25.008Z,13.11
2022-09-15T01:03:24.940Z,13.11
2022-09-15T01:04:24.938Z,13.07
2022-09-15T01:05:24.935Z,13.06
2022-09-15T01:06:24.934Z,13.06
2022-09-15T01:07:24.900Z,13.06
2022-09-15T01:08:24.894Z,13.06
2022-09-15T01:09:24.867Z,13.07
2022-09-15T01:10:24.870Z,13.07
2022-09-15T01:11:24.858Z,13.07
2022-09-15T01:12:24.817Z,13.06
2022-09-15T01:13:24.806Z,13.04
2022-09-15T01:14:24.797Z,13.04
2022-09-15T01:15:24.777Z,13.03
2022-09-15T01:16:24.842Z,13.03
2022-09-15T01:17:24.768Z,13.02
2022-09-15T01:18:24.747Z,12.99
2022-09-15T01:19:24.729Z,13.00
2022-09-15T01:20:24.739Z,12.97
2022-09-15T01:21:24.709Z,12.97
2022-09-15T01:22:24.699Z,12.93
2022-09-15T01:23:24.709Z,12.92
2022-09-15T01:24:24.678Z,12.92
2022-09-15T01:25:24.689Z,12.88
2022-09-15T01:26:24.678Z,12.87
2022-09-15T01:27:41.630Z,12.87
2022-09-15T01:28:25.637Z,12.87
2022-09-15T01:29:24.637Z,12.85
2022-09-15T01:30:24.599Z,12.85
2022-09-15T01:31:24.612Z,12.84
2022-09-15T01:32:24.581Z,12.82
2022-09-15T01:33:24.551Z,12.84
2022-09-15T01:34:24.550Z,12.82
2022-09-15T01:35:24.528Z,12.82
2022-09-15T01:36:24.519Z,12.81
2022-09-15T01:37:24.527Z,12.81
2022-09-15T01:38:24.489Z,12.84
2022-09-15T01:39:24.489Z,12.81
2022-09-15T01:40:24.614Z,12.79
2022-09-15T01:41:24.459Z,12.79
2022-09-15T01:42:24.440Z,12.78
2022-09-15T01:43:24.440Z,12.77
2022-09-15T01:44:24.412Z,12.78
2022-09-15T01:45:24.451Z,12.77
2022-09-15T01:46:24.389Z,12.75
2022-09-15T01:47:24.398Z,12.74
2022-09-15T01:48:24.369Z,12.71
2022-09-15T01:49:24.351Z,12.71
2022-09-15T01:50:24.351Z,12.71
2022-09-15T01:51:24.318Z,12.71
2022-09-15T01:52:24.350Z,12.74
2022-09-15T01:53:24.302Z,12.71
2022-09-15T01:54:24.307Z,12.71
2022-09-15T01:55:24.291Z,12.70
2022-09-15T01:56:24.260Z,12.69
2022-09-15T01:57:24.269Z,12.70
2022-09-15T01:58:24.231Z,12.69
2022-09-15T01:59:24.253Z,12.69
2022-09-15T02:00:24.227Z,12.69
2022-09-15T02:01:24.279Z,12.66
2022-09-15T02:02:24.216Z,12.63
2022-09-15T02:03:24.160Z,12.64
2022-09-15T02:04:24.160Z,12.63
2022-09-15T02:05:24.151Z,12.62
2022-09-15T02:06:24.141Z,12.60
2022-09-15T02:07:24.121Z,12.59
2022-09-15T02:08:24.100Z,12.57
2022-09-15T02:09:24.089Z,12.59
2022-09-15T02:10:24.125Z,12.57
2022-09-15T02:11:24.066Z,12.57
2022-09-15T02:12:24.055Z,12.59
2022-09-15T02:13:24.037Z,12.59
2022-09-15T02:14:24.030Z,12.62
2022-09-15T02:15:24.009Z,12.60
2022-09-15T02:16:24.087Z,12.60
2022-09-15T02:17:24.001Z,12.62
2022-09-15T02:18:23.984Z,12.62
2022-09-15T02:19:23.970Z,12.62
2022-09-15T02:20:23.971Z,12.64
2022-09-15T02:21:23.942Z,12.66
2022-09-15T02:22:23.961Z,12.67
2022-09-15T02:23:23.920Z,12.66
2022-09-15T02:24:23.892Z,12.67
2022-09-15T02:25:23.906Z,12.67
2022-09-15T02:26:23.880Z,12.70
2022-09-15T02:27:23.853Z,12.70
2022-09-15T02:28:23.863Z,12.74
2022-09-15T02:29:23.822Z,12.71
2022-09-15T02:30:23.837Z,12.75
2022-09-15T02:31:23.852Z,12.77
2022-09-15T02:32:23.834Z,12.78
2022-09-15T02:33:23.803Z,12.79
2022-09-15T02:34:23.805Z,12.81
2022-09-15T02:35:23.755Z,12.82
2022-09-15T02:36:23.758Z,12.87
2022-09-15T02:37:23.732Z,12.87
2022-09-15T02:38:23.743Z,12.87
2022-09-15T02:39:23.721Z,12.87
2022-09-15T02:40:23.762Z,12.87
2022-09-15T02:41:23.691Z,12.89
2022-09-15T02:42:23.672Z,12.88
2022-09-15T02:43:23.655Z,12.88
2022-09-15T02:44:23.682Z,12.87
2022-09-15T02:45:23.678Z,12.85
2022-09-15T02:46:23.641Z,12.82
2022-09-15T02:47:23.612Z,12.82
2022-09-15T02:48:23.594Z,12.79
2022-09-15T02:49:23.606Z,12.78
2022-09-15T02:50:23.575Z,12.77
2022-09-15T02:51:23.558Z,12.74
2022-09-15T02:52:23.543Z,12.70
2022-09-15T02:53:23.544Z,12.70
2022-09-15T02:54:23.516Z,12.70
2022-09-15T02:55:23.505Z,12.66
2022-09-15T02:56:23.511Z,12.64
2022-09-15T02:57:23.472Z,12.62
2022-09-15T02:58:23.461Z,12.60
2022-09-15T02:59:23.454Z,12.57
2022-09-15T03:00:23.456Z,12.54
2022-09-15T03:01:23.501Z,12.54
2022-09-15T03:02:23.495Z,12.54
2022-09-15T03:03:23.394Z,12.52
2022-09-15T03:04:23.421Z,12.56
2022-09-15T03:05:23.372Z,12.54
2022-09-15T03:06:23.384Z,12.54
2022-09-15T03:07:23.350Z,12.52
2022-09-15T03:08:23.343Z,12.51
2022-09-15T03:09:23.323Z,12.52
2022-09-15T03:10:23.353Z,12.51
2022-09-15T03:11:23.292Z,12.51
2022-09-15T03:12:23.955Z,12.51
2022-09-15T03:13:23.265Z,12.54
2022-09-15T03:14:23.297Z,12.54
2022-09-15T03:15:23.245Z,12.54
2022-09-15T03:16:23.313Z,12.57
2022-09-15T03:17:23.215Z,12.56
2022-09-15T03:18:23.233Z,12.56
2022-09-15T03:19:23.196Z,12.56
2022-09-15T03:20:23.224Z,12.56
2022-09-15T03:21:23.162Z,12.54
2022-09-15T03:22:23.155Z,12.51
2022-09-15T03:23:23.136Z,12.51
2022-09-15T03:24:23.128Z,12.48
2022-09-15T03:25:23.105Z,12.48
2022-09-15T03:26:23.104Z,12.46
2022-09-15T03:27:23.084Z,12.45
2022-09-15T03:28:23.074Z,12.44
2022-09-15T03:29:23.084Z,12.42
2022-09-15T03:30:23.089Z,12.39
2022-09-15T03:31:23.080Z,12.37
2022-09-15T03:32:23.036Z,12.33
2022-09-15T03:33:23.007Z,12.34
2022-09-15T03:34:22.997Z,12.34
2022-09-15T03:35:22.987Z,12.33
2022-09-15T03:36:22.986Z,12.31
2022-09-15T03:37:22.955Z,12.29
2022-09-15T03:38:22.943Z,12.27
2022-09-15T03:39:22.925Z,12.27
2022-09-15T03:40:22.999Z,12.29
2022-09-15T03:41:22.905Z,12.26
2022-09-15T03:42:22.895Z,12.24
2022-09-15T03:43:22.875Z,12.23
2022-09-15T03:44:22.877Z,12.23
2022-09-15T03:45:22.858Z,12.21
2022-09-15T03:46:22.847Z,12.20
2022-09-15T03:47:22.837Z,12.19
2022-09-15T03:48:22.835Z,12.11
2022-09-15T03:49:22.797Z,12.13
2022-09-15T03:50:22.845Z,12.12
2022-09-15T03:51:22.787Z,12.11
2022-09-15T03:52:22.758Z,12.09
2022-09-15T03:53:22.757Z,12.06
2022-09-15T03:54:22.728Z,12.04
2022-09-15T03:55:22.727Z,12.04
2022-09-15T03:56:22.706Z,12.01
2022-09-15T03:57:22.697Z,12.01
2022-09-15T03:58:22.694Z,12.02
2022-09-15T03:59:22.676Z,12.04
2022-09-15T04:00:22.669Z,12.02
2022-09-15T04:01:22.724Z,11.96
2022-09-15T04:02:22.692Z,11.97
2022-09-15T04:03:22.639Z,11.97
2022-09-15T04:04:22.618Z,11.96
2022-09-15T04:05:22.609Z,11.96
2022-09-15T04:06:22.592Z,11.93
2022-09-15T04:07:22.569Z,11.90
2022-09-15T04:08:22.570Z,11.94
2022-09-15T04:09:22.532Z,11.93
2022-09-15T04:10:22.558Z,11.90
2022-09-15T04:11:22.512Z,11.94
2022-09-15T04:12:22.510Z,11.93
2022-09-15T04:13:26.651Z,11.89
2022-09-15T04:14:23.496Z,11.89
2022-09-15T04:15:22.497Z,11.89
2022-09-15T04:16:22.519Z,11.87
2022-09-15T04:17:22.436Z,11.87
2022-09-15T04:18:22.419Z,11.90
2022-09-15T04:19:22.401Z,11.89
2022-09-15T04:20:22.406Z,11.89
2022-09-15T04:21:22.386Z,11.89
2022-09-15T04:22:22.397Z,11.87
2022-09-15T04:23:22.349Z,11.86
2022-09-15T04:24:22.337Z,11.87
2022-09-15T04:25:22.329Z,11.87
2022-09-15T04:26:22.341Z,11.87
2022-09-15T04:27:22.299Z,11.86
2022-09-15T04:28:22.323Z,11.85
2022-09-15T04:29:22.289Z,11.85
2022-09-15T04:30:22.380Z,11.83
2022-09-15T04:31:22.403Z,11.85
2022-09-15T04:32:22.238Z,11.82
2022-09-15T04:33:22.216Z,11.80
2022-09-15T04:34:22.318Z,11.83
2022-09-15T04:35:22.279Z,11.80
2022-09-15T04:36:22.178Z,11.82
2022-09-15T04:37:22.229Z,11.80
2022-09-15T04:38:22.149Z,11.80
2022-09-15T04:39:22.138Z,11.80
2022-09-15T04:40:22.181Z,11.82
2022-09-15T04:41:22.119Z,11.82
2022-09-15T04:42:22.140Z,11.82
2022-09-15T04:43:22.098Z,11.78
2022-09-15T04:44:22.080Z,11.82
2022-09-15T04:45:22.062Z,11.85
2022-09-15T04:46:22.191Z,11.87
2022-09-15T04:47:22.061Z,11.90
2022-09-15T04:48:22.039Z,11.94
2022-09-15T04:49:22.008Z,11.96
2022-09-15T04:50:21.990Z,11.97
2022-09-15T04:51:22.029Z,11.99
2022-09-15T04:52:21.968Z,12.01
2022-09-15T04:53:21.968Z,12.02
2022-09-15T04:54:21.950Z,12.02
2022-09-15T04:55:22.122Z,12.05
2022-09-15T04:56:21.999Z,12.11
2022-09-15T04:57:22.021Z,12.11
2022-09-15T04:58:21.903Z,12.13
2022-09-15T04:59:21.911Z,12.19
2022-09-15T05:00:22.020Z,12.19
2022-09-15T05:01:21.925Z,12.20
2022-09-15T05:02:21.893Z,12.20
2022-09-15T05:03:21.852Z,12.19
2022-09-15T05:04:21.811Z,12.19
2022-09-15T05:05:21.821Z,12.16
2022-09-15T05:06:21.800Z,12.15
2022-09-15T05:07:21.780Z,12.15
2022-09-15T05:08:21.862Z,12.15
2022-09-15T05:09:21.733Z,12.13
2022-09-15T05:10:21.733Z,12.13
2022-09-15T05:11:21.721Z,12.15
2022-09-15T05:12:21.722Z,12.13
2022-09-15T05:13:21.691Z,12.13
2022-09-15T05:14:21.699Z,12.13
2022-09-15T05:15:21.674Z,12.16
2022-09-15T05:16:21.840Z,12.13
2022-09-15T05:17:26.138Z,12.13
2022-09-15T05:18:22.652Z,12.13
2022-09-15T05:19:21.654Z,12.13
2022-09-15T05:20:21.594Z,12.15
2022-09-15T05:21:21.648Z,12.15
2022-09-15T05:22:21.561Z,12.15
2022-09-15T05:23:21.562Z,12.15
2022-09-15T05:24:21.570Z,12.15
2022-09-15T05:25:21.532Z,12.15
2022-09-15T05:26:21.624Z,12.13
2022-09-15T05:27:21.500Z,12.15
2022-09-15T05:28:21.503Z,12.16
2022-09-15T05:29:21.485Z,12.16
2022-09-15T05:30:37.864Z,12.19
2022-09-15T05:31:22.579Z,12.23
2022-09-15T05:32:21.454Z,12.24
2022-09-15T05:33:21.423Z,12.26
2022-09-15T05:34:21.428Z,12.24
2022-09-15T05:35:21.405Z,12.26
2022-09-15T05:36:21.455Z,12.30
2022-09-15T05:37:21.380Z,12.30
2022-09-15T05:38:21.444Z,12.31
2022-09-15T05:39:21.485Z,12.34
2022-09-15T05:40:21.359Z,12.38
2022-09-15T05:41:21.594Z,12.41
2022-09-15T05:42:21.352Z,12.41
2022-09-15T05:43:21.402Z,12.45
2022-09-15T05:44:21.340Z,12.48
2022-09-15T05:45:21.334Z,12.49
2022-09-15T05:46:21.448Z,12.51
2022-09-15T05:47:21.413Z,12.52
2022-09-15T05:48:21.224Z,12.54
2022-09-15T05:49:21.324Z,12.59
2022-09-15T05:50:21.214Z,12.64
2022-09-15T05:51:21.193Z,12.66
2022-09-15T05:52:21.179Z,12.70
2022-09-15T05:53:21.153Z,12.70
2022-09-15T05:54:21.142Z,12.75
2022-09-15T05:55:21.142Z,12.78
2022-09-15T05:56:21.131Z,12.79
2022-09-15T05:57:21.129Z,12.82
2022-09-15T05:58:21.103Z,12.82
2022-09-15T05:59:21.082Z,12.87
2022-09-15T06:00:21.075Z,12.89
2022-09-15T06:01:21.083Z,12.95
2022-09-15T06:02:21.110Z,12.97
2022-09-15T06:03:21.237Z,13.00
2022-09-15T06:04:21.024Z,13.06
2022-09-15T06:05:21.015Z,13.12
2022-09-15T06:06:21.023Z,13.17
2022-09-15T06:07:21.009Z,13.21
2022-09-15T06:08:20.972Z,13.22
2022-09-15T06:09:20.953Z,13.30
2022-09-15T06:10:20.935Z,13.30
2022-09-15T06:11:20.956Z,13.32
2022-09-15T06:12:20.912Z,13.33
2022-09-15T06:13:20.893Z,13.36
2022-09-15T06:14:20.955Z,13.38
2022-09-15T06:15:20.885Z,13.43
2022-09-15T06:16:20.914Z,13.46
2022-09-15T06:17:20.875Z,13.52
2022-09-15T06:18:20.844Z,13.65
2022-09-15T06:19:20.846Z,13.77
2022-09-15T06:20:20.823Z,13.84
2022-09-15T06:21:20.805Z,13.96
2022-09-15T06:22:20.796Z,14.09
2022-09-15T06:23:20.775Z,14.12
2022-09-15T06:24:20.778Z,14.10
2022-09-15T06:25:20.750Z,14.12
2022-09-15T06:26:20.732Z,14.13
2022-09-15T06:27:20.726Z,14.16
2022-09-15T06:28:20.707Z,14.19
2022-09-15T06:29:20.697Z,14.21
2022-09-15T06:30:20.696Z,14.27
2022-09-15T06:31:20.735Z,14.29
2022-09-15T06:32:20.737Z,14.34
2022-09-15T06:33:20.635Z,14.35
2022-09-15T06:34:20.643Z,14.35
2022-09-15T06:35:20.626Z,14.39
2022-09-15T06:36:20.608Z,14.42
2022-09-15T06:37:20.587Z,14.42
2022-09-15T06:38:20.578Z,14.42
2022-09-15T06:39:20.609Z,14.39
2022-09-15T06:40:20.576Z,14.46
2022-09-15T06:41:27.568Z,14.56
2022-09-15T06:42:20.531Z,14.65
2022-09-15T06:43:20.507Z,14.75
2022-09-15T06:44:20.500Z,14.78
2022-09-15T06:45:20.481Z,14.81
2022-09-15T06:46:20.514Z,14.93
2022-09-15T06:47:20.456Z,14.99
2022-09-15T06:48:24.724Z,15.13
2022-09-15T06:49:20.426Z,15.15
2022-09-15T06:50:20.425Z,15.03
2022-09-15T06:51:20.387Z,14.98
2022-09-15T06:52:20.378Z,14.98
2022-09-15T06:53:20.396Z,14.95
2022-09-15T06:54:20.358Z,14.95
2022-09-15T06:55:20.358Z,15.02
2022-09-15T06:56:20.350Z,15.09
2022-09-15T06:57:20.379Z,15.23
2022-09-15T06:58:20.326Z,15.27
2022-09-15T06:59:20.300Z,15.31
2022-09-15T07:00:20.279Z,15.36
2022-09-15T07:01:20.270Z,15.35
2022-09-15T07:02:20.357Z,15.38
2022-09-15T07:03:20.295Z,15.39
2022-09-15T07:04:20.248Z,15.48
2022-09-15T07:05:20.208Z,15.54
2022-09-15T07:06:20.201Z,15.64
2022-09-15T07:07:20.197Z,15.64
2022-09-15T07:08:20.169Z,15.72
2022-09-15T07:09:20.163Z,15.75
2022-09-15T07:10:20.153Z,15.79
2022-09-15T07:11:20.141Z,15.81
2022-09-15T07:12:20.131Z,15.88
2022-09-15T07:13:20.120Z,15.86
2022-09-15T07:14:20.099Z,15.84
2022-09-15T07:15:20.089Z,15.88
2022-09-15T07:16:20.133Z,15.84
2022-09-15T07:17:20.061Z,15.76
2022-09-15T07:18:20.049Z,15.64
2022-09-15T07:19:20.029Z,15.56
2022-09-15T07:20:20.011Z,15.51
2022-09-15T07:21:20.126Z,15.57
2022-09-15T07:22:20.001Z,15.54
2022-09-15T07:23:19.991Z,15.57
2022-09-15T07:24:19.979Z,15.64
2022-09-15T07:25:19.971Z,15.78
2022-09-15T07:26:19.931Z,15.81
2022-09-15T07:27:19.920Z,15.78
2022-09-15T07:28:19.920Z,15.75
2022-09-15T07:29:19.899Z,15.74
2022-09-15T07:30:19.882Z,15.75
2022-09-15T07:31:19.985Z,15.74
2022-09-15T07:32:19.850Z,15.68
2022-09-15T07:33:19.878Z,15.66
2022-09-15T07:34:19.858Z,15.72
2022-09-15T07:35:19.822Z,15.76
2022-09-15T07:36:19.811Z,15.76
2022-09-15T07:37:19.802Z,15.68
2022-09-15T07:38:19.786Z,15.72
2022-09-15T07:39:19.792Z,15.79
2022-09-15T07:40:19.838Z,15.76
2022-09-15T07:41:19.744Z,15.72
2022-09-15T07:42:19.722Z,15.67
2022-09-15T07:43:19.701Z,15.66
2022-09-15T07:44:19.695Z,15.64
2022-09-15T07:45:19.729Z,15.72
2022-09-15T07:46:19.661Z,15.68
2022-09-15T07:47:19.660Z,15.70
2022-09-15T07:48:22.197Z,15.74
2022-09-15T07:49:20.636Z,15.84
2022-09-15T07:50:19.622Z,15.78
2022-09-15T07:51:19.654Z,15.70
2022-09-15T07:52:19.591Z,15.68
2022-09-15T07:53:19.734Z,15.79
2022-09-15T07:54:22.918Z,15.84
2022-09-15T07:55:19.554Z,15.78
2022-09-15T07:56:19.546Z,15.86
2022-09-15T07:57:19.525Z,15.96
2022-09-15T07:58:19.512Z,15.86
2022-09-15T07:59:19.504Z,15.96
2022-09-15T08:00:19.484Z,15.99
2022-09-15T08:01:19.529Z,16.00
2022-09-15T08:02:19.523Z,15.96
2022-09-15T08:03:19.450Z,15.93
2022-09-15T08:04:19.434Z,15.92
2022-09-15T08:05:19.448Z,15.96
2022-09-15T08:06:19.396Z,16.00
2022-09-15T08:07:19.406Z,16.12
2022-09-15T08:08:19.376Z,16.16
2022-09-15T08:09:19.367Z,16.23
2022-09-15T08:10:19.356Z,16.33
2022-09-15T08:11:19.561Z,16.40
2022-09-15T08:12:19.324Z,16.37
2022-09-15T08:13:19.327Z,16.40
2022-09-15T08:14:19.295Z,16.49
2022-09-15T08:15:19.285Z,16.44
2022-09-15T08:16:19.361Z,16.40
2022-09-15T08:17:19.263Z,16.31
2022-09-15T08:18:19.305Z,16.34
2022-09-15T08:19:19.244Z,16.27
2022-09-15T08:20:19.225Z,16.23
2022-09-15T08:21:19.206Z,16.22
2022-09-15T08:22:19.197Z,16.22
2022-09-15T08:23:19.189Z,16.25
2022-09-15T08:24:19.182Z,16.22
2022-09-15T08:25:19.158Z,16.22
2022-09-15T08:26:19.150Z,16.11
2022-09-15T08:27:19.127Z,16.16
2022-09-15T08:28:19.117Z,16.30
2022-09-15T08:29:19.127Z,16.27
2022-09-15T08:30:19.125Z,16.34
2022-09-15T08:31:19.200Z,16.34
2022-09-15T08:32:19.083Z,16.27
2022-09-15T08:33:19.069Z,16.23
2022-09-15T08:34:19.049Z,16.27
2022-09-15T08:35:19.052Z,16.26
2022-09-15T08:36:19.066Z,16.20
2022-09-15T08:37:19.010Z,16.07
2022-09-15T08:38:18.998Z,16.06
2022-09-15T08:39:18.977Z,16.14
2022-09-15T08:40:19.019Z,16.23
2022-09-15T08:41:18.940Z,16.34
2022-09-15T08:42:18.947Z,16.26
2022-09-15T08:43:18.927Z,16.15
2022-09-15T08:44:18.907Z,16.16
2022-09-15T08:45:18.897Z,16.26
2022-09-15T08:46:18.938Z,16.34
2022-09-15T08:47:18.901Z,16.41
2022-09-15T08:48:18.900Z,16.44
2022-09-15T08:49:30.768Z,16.56
2022-09-15T08:50:19.850Z,16.63
2022-09-15T08:51:18.832Z,16.70
2022-09-15T08:52:18.821Z,16.68
2022-09-15T08:53:18.811Z,16.75
2022-09-15T08:54:18.781Z,16.75
2022-09-15T08:55:18.789Z,16.65
2022-09-15T08:56:18.752Z,16.59
2022-09-15T08:57:18.739Z,16.67
2022-09-15T08:58:18.730Z,16.75
2022-09-15T08:59:18.720Z,16.80
2022-09-15T09:00:18.744Z,16.95
2022-09-15T09:01:18.738Z,17.03
2022-09-15T09:02:18.735Z,17.03
2022-09-15T09:03:18.672Z,17.04
2022-09-15T09:04:18.662Z,17.13
2022-09-15T09:05:18.651Z,17.11
2022-09-15T09:06:18.652Z,17.03
2022-09-15T09:07:18.637Z,17.08
2022-09-15T09:08:18.613Z,17.03
2022-09-15T09:09:18.690Z,17.07
2022-09-15T09:10:18.591Z,17.06
2022-09-15T09:11:18.571Z,17.04
2022-09-15T09:12:18.554Z,17.03
2022-09-15T09:13:18.560Z,17.04
2022-09-15T09:14:18.531Z,17.13
2022-09-15T09:15:18.521Z,17.11
2022-09-15T09:16:18.544Z,17.04
2022-09-15T09:17:18.497Z,17.03
2022-09-15T09:18:18.476Z,17.14
2022-09-15T09:19:18.474Z,17.26
2022-09-15T09:20:18.454Z,17.29
2022-09-15T09:21:18.445Z,17.32
2022-09-15T09:22:18.428Z,17.23
2022-09-15T09:23:18.425Z,17.15
2022-09-15T09:24:18.394Z,17.17
2022-09-15T09:25:27.388Z,17.18
2022-09-15T09:26:19.415Z,17.17
2022-09-15T09:27:18.354Z,17.13
2022-09-15T09:28:18.350Z,17.13
2022-09-15T09:29:18.344Z,17.07
2022-09-15T09:30:18.315Z,17.11
2022-09-15T09:31:18.418Z,17.18
2022-09-15T09:32:21.529Z,17.22
2022-09-15T09:33:18.275Z,17.28
2022-09-15T09:34:18.295Z,17.32
2022-09-15T09:35:18.265Z,17.29
2022-09-15T09:36:18.235Z,17.30
2022-09-15T09:37:18.216Z,17.32
2022-09-15T09:38:18.205Z,17.40
2022-09-15T09:39:18.187Z,17.40
2022-09-15T09:40:18.286Z,17.48
2022-09-15T09:41:18.174Z,17.44
2022-09-15T09:42:18.148Z,17.33
2022-09-15T09:43:18.136Z,17.32
2022-09-15T09:44:18.125Z,17.35
2022-09-15T09:45:18.120Z,17.28
2022-09-15T09:46:18.164Z,17.29
2022-09-15T09:47:18.088Z,17.29
2022-09-15T09:48:18.068Z,17.44
2022-09-15T09:49:18.068Z,17.50
2022-09-15T09:50:18.046Z,17.62
2022-09-15T09:51:18.028Z,17.67
2022-09-15T09:52:21.951Z,17.74
2022-09-15T09:53:17.989Z,17.66
2022-09-15T09:54:17.988Z,17.63
2022-09-15T09:55:17.958Z,17.51
2022-09-15T09:56:17.957Z,17.50
2022-09-15T09:57:17.967Z,17.53
2022-09-15T09:58:17.930Z,17.51
2022-09-15T09:59:17.910Z,17.40
2022-09-15T10:00:18.012Z,17.26
2022-09-15T10:01:17.968Z,17.30
2022-09-15T10:02:17.887Z,17.33
2022-09-15T10:03:17.867Z,17.47
2022-09-15T10:04:17.850Z,17.55
2022-09-15T10:05:17.932Z,17.51
2022-09-15T10:06:17.830Z,17.55
2022-09-15T10:07:17.800Z,17.63
2022-09-15T10:08:17.800Z,17.70
2022-09-15T10:09:17.799Z,17.64
2022-09-15T10:10:17.759Z,17.59
2022-09-15T10:11:17.740Z,17.57
2022-09-15T10:12:17.749Z,17.67
2022-09-15T10:13:17.731Z,17.76
2022-09-15T10:14:17.721Z,17.87
2022-09-15T10:15:17.701Z,17.97
2022-09-15T10:16:17.705Z,18.00
2022-09-15T10:17:17.748Z,18.18
2022-09-15T10:18:17.682Z,18.29
2022-09-15T10:19:17.710Z,18.40
2022-09-15T10:20:17.642Z,18.25
2022-09-15T10:21:17.663Z,18.17
2022-09-15T10:22:17.603Z,18.22
2022-09-15T10:23:17.606Z,18.27
2022-09-15T10:24:18.202Z,18.43
2022-09-15T10:25:17.655Z,18.61
2022-09-15T10:26:17.553Z,18.68
2022-09-15T10:27:17.543Z,18.64
2022-09-15T10:28:17.541Z,18.61
2022-09-15T10:29:17.512Z,18.36
2022-09-15T10:30:17.503Z,18.29
2022-09-15T10:31:17.572Z,18.42
2022-09-15T10:32:19.018Z,18.40
2022-09-15T10:33:17.473Z,18.57
2022-09-15T10:34:17.473Z,18.61
2022-09-15T10:35:17.442Z,18.42
2022-09-15T10:36:17.437Z,18.49
2022-09-15T10:37:17.404Z,18.49
2022-09-15T10:38:17.433Z,18.58
2022-09-15T10:39:17.403Z,18.47
2022-09-15T10:40:17.549Z,18.28
2022-09-15T10:41:17.363Z,18.29
2022-09-15T10:42:17.362Z,18.25
2022-09-15T10:43:17.350Z,18.27
2022-09-15T10:44:17.343Z,18.17
2022-09-15T10:45:17.336Z,18.17
2022-09-15T10:46:17.364Z,18.10
2022-09-15T10:47:17.297Z,18.02
2022-09-15T10:48:17.265Z,17.97
2022-09-15T10:49:17.255Z,18.06
2022-09-15T10:50:17.415Z,18.17
2022-09-15T10:51:17.225Z,18.36
2022-09-15T10:52:17.215Z,18.29
2022-09-15T10:53:17.215Z,18.15
2022-09-15T10:54:17.198Z,18.19
2022-09-15T10:55:22.105Z,18.33
2022-09-15T10:56:18.347Z,18.42
2022-09-15T10:57:17.180Z,18.62
2022-09-15T10:58:17.145Z,18.87
2022-09-15T10:59:17.128Z,19.02
2022-09-15T11:00:17.118Z,19.08
2022-09-15T11:01:17.181Z,19.18
2022-09-15T11:02:17.127Z,19.11
2022-09-15T11:03:17.075Z,19.10
2022-09-15T11:04:17.080Z,18.99
2022-09-15T11:05:22.529Z,18.98
2022-09-15T11:06:18.117Z,19.11
2022-09-15T11:07:17.019Z,19.10
2022-09-15T11:08:17.008Z,19.10
2022-09-15T11:09:16.988Z,19.25
2022-09-15T11:10:17.030Z,19.39
2022-09-15T11:11:16.971Z,19.33
2022-09-15T11:12:16.960Z,19.11
2022-09-15T11:13:16.999Z,18.94
2022-09-15T11:14:16.931Z,18.94
2022-09-15T11:15:17.022Z,19.17
2022-09-15T11:16:16.962Z,19.25
2022-09-15T11:17:16.910Z,19.35
2022-09-15T11:18:16.870Z,19.36
2022-09-15T11:19:16.859Z,19.40
2022-09-15T11:20:16.874Z,19.42
2022-09-15T11:21:16.859Z,19.60
2022-09-15T11:22:16.829Z,19.69
2022-09-15T11:23:16.909Z,19.53
2022-09-15T11:24:16.840Z,19.32
2022-09-15T11:25:16.812Z,19.32
2022-09-15T11:26:16.781Z,19.18
2022-09-15T11:27:16.766Z,19.05
2022-09-15T11:28:16.782Z,18.91
2022-09-15T11:29:16.740Z,18.94
2022-09-15T11:30:16.734Z,18.74
2022-09-15T11:31:16.755Z,18.59
2022-09-15T11:32:16.733Z,18.61
2022-09-15T11:33:16.691Z,18.68
2022-09-15T11:34:16.711Z,18.83
2022-09-15T11:35:16.751Z,18.84
2022-09-15T11:36:16.652Z,18.83
2022-09-15T11:37:16.621Z,18.91
2022-09-15T11:38:16.623Z,19.02
2022-09-15T11:39:16.625Z,19.11
2022-09-15T11:40:16.708Z,19.17
2022-09-15T11:41:16.605Z,19.17
2022-09-15T11:42:16.602Z,19.25
2022-09-15T11:43:16.542Z,19.21
2022-09-15T11:44:17.060Z,19.17
2022-09-15T11:45:16.532Z,19.06
2022-09-15T11:46:16.608Z,18.87
2022-09-15T11:47:16.513Z,18.80
2022-09-15T11:48:16.573Z,18.82
2022-09-15T11:49:16.482Z,18.91
2022-09-15T11:50:16.488Z,18.86
2022-09-15T11:51:16.445Z,18.92
2022-09-15T11:52:16.445Z,18.80
2022-09-15T11:53:16.425Z,18.74
2022-09-15T11:54:16.418Z,18.84
2022-09-15T11:55:16.416Z,18.68
2022-09-15T11:56:16.386Z,18.79
2022-09-15T11:57:16.366Z,18.87
2022-09-15T11:58:21.038Z,18.98
2022-09-15T11:59:17.335Z,19.32
2022-09-15T12:00:16.344Z,19.25
2022-09-15T12:01:16.365Z,19.24
2022-09-15T12:02:16.347Z,19.18
2022-09-15T12:03:16.336Z,19.14
2022-09-15T12:04:16.276Z,19.06
2022-09-15T12:05:16.271Z,19.13
2022-09-15T12:06:16.268Z,19.05
2022-09-15T12:07:16.256Z,19.10
2022-09-15T12:08:16.228Z,19.06
2022-09-15T12:09:16.218Z,18.98
2022-09-15T12:10:16.237Z,18.91
2022-09-15T12:11:16.178Z,18.79
2022-09-15T12:12:16.180Z,18.68
2022-09-15T12:13:16.178Z,18.64
2022-09-15T12:14:16.147Z,18.52
2022-09-15T12:15:16.127Z,18.42
2022-09-15T12:16:16.208Z,18.39
2022-09-15T12:17:16.148Z,18.36
2022-09-15T12:18:34.869Z,18.34
2022-09-15T12:19:17.079Z,18.27
2022-09-15T12:20:16.068Z,18.28
2022-09-15T12:21:16.049Z,18.25
2022-09-15T12:22:16.048Z,18.29
2022-09-15T12:23:16.031Z,18.34
2022-09-15T12:24:16.027Z,18.37
2022-09-15T12:25:16.006Z,18.42
2022-09-15T12:26:15.994Z,18.46
2022-09-15T12:27:15.982Z,18.49
2022-09-15T12:28:15.979Z,18.58
2022-09-15T12:29:15.949Z,18.52
2022-09-15T12:30:15.969Z,18.54
2022-09-15T12:31:15.938Z,18.58
2022-09-15T12:32:15.910Z,18.54
2022-09-15T12:33:15.899Z,18.54
2022-09-15T12:34:15.889Z,18.57
2022-09-15T12:35:15.877Z,18.64
2022-09-15T12:36:15.869Z,18.67
2022-09-15T12:37:15.860Z,18.82
2022-09-15T12:38:15.841Z,18.99
2022-09-15T12:39:15.812Z,19.08
2022-09-15T12:40:15.851Z,19.05
2022-09-15T12:42:06.596Z,19.02
2022-09-15T12:43:06.625Z,19.06
2022-09-15T12:44:06.597Z,19.10
2022-09-15T12:45:06.552Z,18.91
2022-09-15T12:46:06.629Z,18.79
2022-09-15T12:47:06.623Z,18.68
2022-09-15T12:48:06.531Z,18.68
2022-09-15T12:49:06.524Z,18.70
2022-09-15T12:50:06.582Z,18.64
2022-09-15T12:51:06.473Z,18.57
2022-09-15T12:52:06.577Z,18.54
2022-09-15T12:53:06.466Z,18.52
2022-09-15T12:54:06.435Z,18.50